createdAt,value
2019-05-19T00:00:53.498Z,17.24
2019-05-19T00:01:53.506Z,17.24
2019-05-19T00:02:53.511Z,17.23
2019-05-19T00:03:53.542Z,17.23
2019-05-19T00:04:53.528Z,17.24
2019-05-19T00:05:53.499Z,17.23
2019-05-19T00:06:53.561Z,17.24
2019-05-19T00:07:53.490Z,17.23
2019-05-19T00:08:53.560Z,17.23
2019-05-19T00:09:53.548Z,17.24
2019-05-19T00:10:53.499Z,17.23
2019-05-19T00:11:53.511Z,17.24
2019-05-19T00:12:53.545Z,17.24
2019-05-19T00:13:53.564Z,17.24
2019-05-19T00:14:53.529Z,17.25
2019-05-19T00:15:53.502Z,17.24
2019-05-19T00:16:53.543Z,17.24
2019-05-19T00:17:53.510Z,17.24
2019-05-19T00:18:53.560Z,17.24
2019-05-19T00:19:53.553Z,17.24
2019-05-19T00:20:53.543Z,17.24
2019-05-19T00:21:53.568Z,17.24
2019-05-19T00:22:53.526Z,17.25
2019-05-19T00:23:53.569Z,17.24
2019-05-19T00:24:53.523Z,17.23
2019-05-19T00:25:53.542Z,17.24
2019-05-19T00:26:53.521Z,17.23
2019-05-19T00:27:53.529Z,17.23
2019-05-19T00:28:53.548Z,17.24
2019-05-19T00:29:53.535Z,17.24
2019-05-19T00:30:53.537Z,17.24
2019-05-19T00:31:53.508Z,17.22
2019-05-19T00:32:53.532Z,17.24
2019-05-19T00:33:53.523Z,17.24
2019-05-19T00:34:53.545Z,17.23
2019-05-19T00:35:53.526Z,17.24
2019-05-19T00:36:53.557Z,17.24
2019-05-19T00:37:53.568Z,17.24
2019-05-19T00:38:53.537Z,17.23
2019-05-19T00:39:53.575Z,17.24
2019-05-19T00:40:53.558Z,17.24
2019-05-19T00:41:53.525Z,17.24
2019-05-19T00:42:53.552Z,17.23
2019-05-19T00:43:53.583Z,17.24
2019-05-19T00:44:53.567Z,17.24
2019-05-19T00:45:53.585Z,17.23
2019-05-19T00:46:53.579Z,17.24
2019-05-19T00:47:53.564Z,17.24
2019-05-19T00:48:53.594Z,17.23
2019-05-19T00:49:53.573Z,17.23
2019-05-19T00:50:53.587Z,17.23
2019-05-19T00:51:53.539Z,17.24
2019-05-19T00:52:53.566Z,17.24
2019-05-19T00:53:53.547Z,17.24
2019-05-19T00:54:53.599Z,17.23
2019-05-19T00:55:53.575Z,17.25
2019-05-19T00:56:53.566Z,17.25
2019-05-19T00:57:53.541Z,17.24
2019-05-19T00:58:53.568Z,17.24
2019-05-19T00:59:53.584Z,17.23
2019-05-19T01:00:53.565Z,17.23
2019-05-19T01:01:53.549Z,17.24
2019-05-19T01:02:53.554Z,17.24
2019-05-19T01:03:53.593Z,17.24
2019-05-19T01:04:53.571Z,17.23
2019-05-19T01:05:53.583Z,17.24
2019-05-19T01:06:53.570Z,17.24
2019-05-19T01:07:53.572Z,17.24
2019-05-19T01:08:53.604Z,17.24
2019-05-19T01:09:53.557Z,17.23
2019-05-19T01:10:53.608Z,17.24
2019-05-19T01:11:53.587Z,17.24
2019-05-19T01:12:53.588Z,17.24
2019-05-19T01:13:53.563Z,17.24
2019-05-19T01:14:53.575Z,17.24
2019-05-19T01:15:53.604Z,17.23
2019-05-19T01:16:53.573Z,17.24
2019-05-19T01:17:53.595Z,17.23
2019-05-19T01:18:53.594Z,17.23
2019-05-19T01:19:55.923Z,17.23
2019-05-19T01:20:53.623Z,17.24
2019-05-19T01:21:53.610Z,17.23
2019-05-19T01:22:53.582Z,17.23
2019-05-19T01:23:53.576Z,17.23
2019-05-19T01:24:53.572Z,17.24
2019-05-19T01:25:53.613Z,17.24
2019-05-19T01:26:53.577Z,17.23
2019-05-19T01:27:53.611Z,17.24
2019-05-19T01:28:53.593Z,17.23
2019-05-19T01:29:53.601Z,17.23
2019-05-19T01:30:53.594Z,17.24
2019-05-19T01:31:53.575Z,17.22
2019-05-19T01:32:53.611Z,17.23
2019-05-19T01:33:53.610Z,17.24
2019-05-19T01:34:53.592Z,17.23
2019-05-19T01:35:53.621Z,17.23
2019-05-19T01:36:53.636Z,17.24
2019-05-19T01:37:53.649Z,17.24
2019-05-19T01:38:53.658Z,17.23
2019-05-19T01:39:53.686Z,17.23
2019-05-19T01:40:53.655Z,17.24
2019-05-19T01:41:53.677Z,17.24
2019-05-19T01:42:53.667Z,17.24
2019-05-19T01:43:53.666Z,17.24
2019-05-19T01:44:53.689Z,17.23
2019-05-19T01:45:53.695Z,17.24
2019-05-19T01:46:53.670Z,17.23
2019-05-19T01:47:53.688Z,17.24
2019-05-19T01:48:53.688Z,17.24
2019-05-19T01:49:53.682Z,17.24
2019-05-19T01:50:53.701Z,17.23
2019-05-19T01:51:53.668Z,17.23
2019-05-19T01:52:53.683Z,17.24
2019-05-19T01:53:53.678Z,17.24
2019-05-19T01:54:53.696Z,17.23
2019-05-19T01:55:53.681Z,17.23
2019-05-19T01:56:53.677Z,17.24
2019-05-19T01:57:53.662Z,17.23
2019-05-19T01:58:53.687Z,17.24
2019-05-19T01:59:53.712Z,17.23
2019-05-19T02:00:53.672Z,17.24
2019-05-19T02:01:53.705Z,17.25
2019-05-19T02:02:53.694Z,17.23
2019-05-19T02:03:53.684Z,17.23
2019-05-19T02:04:53.710Z,17.23
2019-05-19T02:05:53.703Z,17.23
2019-05-19T02:06:53.716Z,17.22
2019-05-19T02:07:53.697Z,17.24
2019-05-19T02:08:53.690Z,17.23
2019-05-19T02:09:53.735Z,17.24
2019-05-19T02:10:53.704Z,17.23
2019-05-19T02:11:53.681Z,17.23
2019-05-19T02:12:53.700Z,17.24
2019-05-19T02:13:53.700Z,17.23
2019-05-19T02:14:53.744Z,17.23
2019-05-19T02:15:53.708Z,17.24
2019-05-19T02:16:53.736Z,17.23
2019-05-19T02:17:53.721Z,17.23
2019-05-19T02:18:53.725Z,17.24
2019-05-19T02:19:53.712Z,17.24
2019-05-19T02:20:53.722Z,17.24
2019-05-19T02:21:53.710Z,17.24
2019-05-19T02:22:53.723Z,17.23
2019-05-19T02:23:53.756Z,17.24
2019-05-19T02:24:53.751Z,17.24
2019-05-19T02:25:53.707Z,17.23
2019-05-19T02:26:53.731Z,17.24
2019-05-19T02:27:53.732Z,17.25
2019-05-19T02:28:53.742Z,17.24
2019-05-19T02:29:53.723Z,17.23
2019-05-19T02:30:53.757Z,17.23
2019-05-19T02:31:53.708Z,17.24
2019-05-19T02:32:53.718Z,17.24
2019-05-19T02:33:53.754Z,17.23
2019-05-19T02:34:53.730Z,17.24
2019-05-19T02:35:53.750Z,17.23
2019-05-19T02:36:53.740Z,17.24
2019-05-19T02:37:53.709Z,17.24
2019-05-19T02:38:53.717Z,17.23
2019-05-19T02:39:53.724Z,17.23
2019-05-19T02:40:53.743Z,17.24
2019-05-19T02:41:53.761Z,17.23
2019-05-19T02:42:53.742Z,17.23
2019-05-19T02:43:53.729Z,17.23
2019-05-19T02:44:53.752Z,17.23
2019-05-19T02:45:53.736Z,17.23
2019-05-19T02:46:53.726Z,17.24
2019-05-19T02:47:53.747Z,17.23
2019-05-19T02:48:53.750Z,17.24
2019-05-19T02:49:53.740Z,17.24
2019-05-19T02:50:53.758Z,17.24
2019-05-19T02:51:53.743Z,17.24
2019-05-19T02:52:53.739Z,17.23
2019-05-19T02:53:53.788Z,17.23
2019-05-19T02:54:53.734Z,17.24
2019-05-19T02:55:53.793Z,17.23
2019-05-19T02:56:53.756Z,17.24
2019-05-19T02:57:53.760Z,17.23
2019-05-19T02:58:53.748Z,17.23
2019-05-19T02:59:53.751Z,17.24
2019-05-19T03:00:53.790Z,17.23
2019-05-19T03:01:53.751Z,17.24
2019-05-19T03:02:53.755Z,17.23
2019-05-19T03:03:53.780Z,17.23
2019-05-19T03:04:53.759Z,17.23
2019-05-19T03:05:53.757Z,17.23
2019-05-19T03:06:54.063Z,17.23
2019-05-19T03:07:53.750Z,17.24
2019-05-19T03:08:53.773Z,17.24
2019-05-19T03:09:53.761Z,17.22
2019-05-19T03:10:53.790Z,17.24
2019-05-19T03:11:53.772Z,17.23
2019-05-19T03:12:53.769Z,17.23
2019-05-19T03:13:53.789Z,17.24
2019-05-19T03:14:53.770Z,17.23
2019-05-19T03:15:53.742Z,17.23
2019-05-19T03:16:53.751Z,17.23
2019-05-19T03:17:53.768Z,17.24
2019-05-19T03:18:53.827Z,17.23
2019-05-19T03:19:53.803Z,17.24
2019-05-19T03:21:09.776Z,17.23
2019-05-19T03:21:53.788Z,17.24
2019-05-19T03:22:53.803Z,17.23
2019-05-19T03:23:53.807Z,17.24
2019-05-19T03:24:53.814Z,17.23
2019-05-19T03:25:53.792Z,17.23
2019-05-19T03:26:53.810Z,17.23
2019-05-19T03:27:53.809Z,17.24
2019-05-19T03:28:53.794Z,17.23
2019-05-19T03:29:53.810Z,17.23
2019-05-19T03:30:53.882Z,17.23
2019-05-19T03:31:53.810Z,17.23
2019-05-19T03:32:53.791Z,17.23
2019-05-19T03:33:53.841Z,17.23
2019-05-19T03:34:53.817Z,17.23
2019-05-19T03:35:53.859Z,17.23
2019-05-19T03:36:53.791Z,17.23
2019-05-19T03:37:53.841Z,17.23
2019-05-19T03:38:53.820Z,17.23
2019-05-19T03:39:53.808Z,17.24
2019-05-19T03:40:53.829Z,17.24
2019-05-19T03:41:53.820Z,17.23
2019-05-19T03:42:53.786Z,17.23
2019-05-19T03:43:53.817Z,17.23
2019-05-19T03:44:53.791Z,17.23
2019-05-19T03:45:53.834Z,17.23
2019-05-19T03:46:53.822Z,17.23
2019-05-19T03:47:53.965Z,17.23
2019-05-19T03:48:53.816Z,17.23
2019-05-19T03:49:53.907Z,17.23
2019-05-19T03:50:53.858Z,17.22
2019-05-19T03:51:53.844Z,17.23
2019-05-19T03:52:53.859Z,17.23
2019-05-19T03:53:53.834Z,17.24
2019-05-19T03:54:53.825Z,17.23
2019-05-19T03:55:53.846Z,17.24
2019-05-19T03:56:53.877Z,17.24
2019-05-19T03:57:53.855Z,17.23
2019-05-19T03:58:53.823Z,17.23
2019-05-19T03:59:53.876Z,17.22
2019-05-19T04:00:53.897Z,17.23
2019-05-19T04:01:53.849Z,17.24
2019-05-19T04:02:53.827Z,17.22
2019-05-19T04:03:53.835Z,17.24
2019-05-19T04:04:53.830Z,17.23
2019-05-19T04:05:53.868Z,17.23
2019-05-19T04:06:53.872Z,17.24
2019-05-19T04:07:53.883Z,17.23
2019-05-19T04:08:53.822Z,17.23
2019-05-19T04:09:53.906Z,17.22
2019-05-19T04:10:53.967Z,17.24
2019-05-19T04:11:53.867Z,17.23
2019-05-19T04:12:53.840Z,17.23
2019-05-19T04:13:53.851Z,17.23
2019-05-19T04:14:53.875Z,17.23
2019-05-19T04:15:53.956Z,17.23
2019-05-19T04:16:53.847Z,17.23
2019-05-19T04:17:53.855Z,17.23
2019-05-19T04:18:53.875Z,17.23
2019-05-19T04:19:53.871Z,17.24
2019-05-19T04:20:53.865Z,17.23
2019-05-19T04:21:53.841Z,17.23
2019-05-19T04:22:53.847Z,17.23
2019-05-19T04:23:53.856Z,17.24
2019-05-19T04:24:53.825Z,17.23
2019-05-19T04:25:53.844Z,17.24
2019-05-19T04:26:53.872Z,17.24
2019-05-19T04:27:53.834Z,17.23
2019-05-19T04:28:53.856Z,17.23
2019-05-19T04:29:53.834Z,17.23
2019-05-19T04:30:53.854Z,17.23
2019-05-19T04:31:53.892Z,17.23
2019-05-19T04:32:53.832Z,17.24
2019-05-19T04:33:53.864Z,17.23
2019-05-19T04:34:53.862Z,17.24
2019-05-19T04:35:57.378Z,17.23
2019-05-19T04:36:53.888Z,17.22
2019-05-19T04:37:53.876Z,17.23
2019-05-19T04:38:53.851Z,17.23
2019-05-19T04:39:53.903Z,17.24
2019-05-19T04:40:53.850Z,17.23
2019-05-19T04:41:53.865Z,17.22
2019-05-19T04:42:53.879Z,17.23
2019-05-19T04:43:53.854Z,17.23
2019-05-19T04:44:53.862Z,17.24
2019-05-19T04:45:53.865Z,17.23
2019-05-19T04:46:53.870Z,17.22
2019-05-19T04:47:53.873Z,17.23
2019-05-19T04:48:53.854Z,17.24
2019-05-19T04:49:53.838Z,17.23
2019-05-19T04:50:53.851Z,17.22
2019-05-19T04:52:05.946Z,17.23
2019-05-19T04:52:53.900Z,17.23
2019-05-19T04:53:53.886Z,17.24
2019-05-19T04:54:53.851Z,17.23
2019-05-19T04:55:53.888Z,17.23
2019-05-19T04:56:53.896Z,17.24
2019-05-19T04:57:53.892Z,17.24
2019-05-19T04:58:53.904Z,17.23
2019-05-19T04:59:53.854Z,17.24
2019-05-19T05:00:53.863Z,17.24
2019-05-19T05:01:53.892Z,17.23
2019-05-19T05:02:53.881Z,17.23
2019-05-19T05:03:53.915Z,17.23
2019-05-19T05:04:53.928Z,17.24
2019-05-19T05:05:53.858Z,17.21
2019-05-19T05:06:53.875Z,17.22
2019-05-19T05:07:53.894Z,17.20
2019-05-19T05:08:53.881Z,17.20
2019-05-19T05:09:53.951Z,17.16
2019-05-19T05:10:53.856Z,17.19
2019-05-19T05:11:53.870Z,17.19
2019-05-19T05:12:53.901Z,17.20
2019-05-19T05:13:53.857Z,17.19
2019-05-19T05:14:53.896Z,17.17
2019-05-19T05:15:53.906Z,17.18
2019-05-19T05:16:53.905Z,17.17
2019-05-19T05:17:53.965Z,17.19
2019-05-19T05:18:53.913Z,17.19
2019-05-19T05:19:53.896Z,17.19
2019-05-19T05:20:53.892Z,17.16
2019-05-19T05:21:53.894Z,17.18
2019-05-19T05:22:53.920Z,17.18
2019-05-19T05:23:53.878Z,17.18
2019-05-19T05:24:53.882Z,17.18
2019-05-19T05:25:53.884Z,17.16
2019-05-19T05:26:53.915Z,17.18
2019-05-19T05:27:53.908Z,17.19
2019-05-19T05:28:53.969Z,17.18
2019-05-19T05:29:53.925Z,17.19
2019-05-19T05:30:53.918Z,17.16
2019-05-19T05:31:53.918Z,17.16
2019-05-19T05:32:53.936Z,17.18
2019-05-19T05:33:53.945Z,17.19
2019-05-19T05:34:53.915Z,17.18
2019-05-19T05:35:54.023Z,17.18
2019-05-19T05:36:53.904Z,17.16
2019-05-19T05:37:53.962Z,17.18
2019-05-19T05:38:54.023Z,17.18
2019-05-19T05:39:53.904Z,17.17
2019-05-19T05:40:53.928Z,17.18
2019-05-19T05:41:53.890Z,17.15
2019-05-19T05:42:53.946Z,17.18
2019-05-19T05:43:55.761Z,17.18
2019-05-19T05:44:53.919Z,17.15
2019-05-19T05:45:53.932Z,17.17
2019-05-19T05:46:53.937Z,17.17
2019-05-19T05:47:53.948Z,17.17
2019-05-19T05:48:53.932Z,17.18
2019-05-19T05:49:53.906Z,17.16
2019-05-19T05:50:53.914Z,17.17
2019-05-19T05:51:53.950Z,17.18
2019-05-19T05:52:53.934Z,17.17
2019-05-19T05:53:53.932Z,17.17
2019-05-19T05:54:53.933Z,17.18
2019-05-19T05:55:53.922Z,17.16
2019-05-19T05:56:53.966Z,17.18
2019-05-19T05:57:53.965Z,17.17
2019-05-19T05:58:53.938Z,17.18
2019-05-19T05:59:54.130Z,17.17
2019-05-19T06:00:53.925Z,17.15
2019-05-19T06:01:53.954Z,17.17
2019-05-19T06:02:53.976Z,17.18
2019-05-19T06:03:53.936Z,17.17
2019-05-19T06:04:53.956Z,17.17
2019-05-19T06:05:53.943Z,17.17
2019-05-19T06:06:53.951Z,17.14
2019-05-19T06:07:53.952Z,17.17
2019-05-19T06:08:53.931Z,17.17
2019-05-19T06:09:53.940Z,17.17
2019-05-19T06:10:53.937Z,17.17
2019-05-19T06:11:53.941Z,17.14
2019-05-19T06:12:53.968Z,17.17
2019-05-19T06:13:53.947Z,17.17
2019-05-19T06:14:53.925Z,17.17
2019-05-19T06:15:53.948Z,17.16
2019-05-19T06:16:53.952Z,17.16
2019-05-19T06:17:53.995Z,17.15
2019-05-19T06:18:56.711Z,17.18
2019-05-19T06:19:54.011Z,17.17
2019-05-19T06:20:53.952Z,17.17
2019-05-19T06:21:53.936Z,17.16
2019-05-19T06:22:57.010Z,17.17
2019-05-19T06:23:53.955Z,17.17
2019-05-19T06:24:53.963Z,17.16
2019-05-19T06:25:53.943Z,17.16
2019-05-19T06:26:53.970Z,17.15
2019-05-19T06:27:53.994Z,17.16
2019-05-19T06:28:53.964Z,17.17
2019-05-19T06:29:53.966Z,17.17
2019-05-19T06:30:53.955Z,17.17
2019-05-19T06:31:53.946Z,17.15
2019-05-19T06:32:53.976Z,17.17
2019-05-19T06:33:53.955Z,17.17
2019-05-19T06:34:54.001Z,17.17
2019-05-19T06:35:53.978Z,17.16
2019-05-19T06:36:55.192Z,17.18
2019-05-19T06:37:53.987Z,17.17
2019-05-19T06:38:53.971Z,17.15
2019-05-19T06:39:53.972Z,17.17
2019-05-19T06:40:53.958Z,17.17
2019-05-19T06:41:53.954Z,17.17
2019-05-19T06:42:53.995Z,17.17
2019-05-19T06:43:53.965Z,17.15
2019-05-19T06:44:53.973Z,17.16
2019-05-19T06:45:53.985Z,17.17
2019-05-19T06:46:53.992Z,17.18
2019-05-19T06:47:53.959Z,17.16
2019-05-19T06:48:54.352Z,17.17
2019-05-19T06:49:53.970Z,17.15
2019-05-19T06:50:54.031Z,17.17
2019-05-19T06:51:54.018Z,17.17
2019-05-19T06:52:53.959Z,17.16
2019-05-19T06:53:54.051Z,17.16
2019-05-19T06:54:53.997Z,17.14
2019-05-19T06:55:53.983Z,17.17
2019-05-19T06:56:54.034Z,17.17
2019-05-19T06:57:53.993Z,17.16
2019-05-19T06:58:54.012Z,17.16
2019-05-19T06:59:53.986Z,17.16
2019-05-19T07:00:54.020Z,17.15
2019-05-19T07:01:54.017Z,17.16
2019-05-19T07:02:54.000Z,17.17
2019-05-19T07:03:54.009Z,17.17
2019-05-19T07:04:54.023Z,17.17
2019-05-19T07:05:54.002Z,17.16
2019-05-19T07:06:54.055Z,17.19
2019-05-19T07:07:54.017Z,17.16
2019-05-19T07:08:54.006Z,17.17
2019-05-19T07:09:58.423Z,17.17
2019-05-19T07:10:53.990Z,17.16
2019-05-19T07:11:54.050Z,17.17
2019-05-19T07:12:54.047Z,17.17
2019-05-19T07:13:53.989Z,17.16
2019-05-19T07:14:54.007Z,17.16
2019-05-19T07:15:53.998Z,17.16
2019-05-19T07:16:53.989Z,17.15
2019-05-19T07:17:54.034Z,17.17
2019-05-19T07:18:53.998Z,17.17
2019-05-19T07:19:54.023Z,17.17
2019-05-19T07:20:54.002Z,17.15
2019-05-19T07:21:54.002Z,17.15
2019-05-19T07:22:54.003Z,17.16
2019-05-19T07:23:54.012Z,17.16
2019-05-19T07:24:54.015Z,17.17
2019-05-19T07:25:54.058Z,17.15
2019-05-19T07:26:54.039Z,17.15
2019-05-19T07:27:53.994Z,17.14
2019-05-19T07:28:54.043Z,17.16
2019-05-19T07:29:54.018Z,17.16
2019-05-19T07:30:54.009Z,17.16
2019-05-19T07:31:54.022Z,17.16
2019-05-19T07:32:54.024Z,17.14
2019-05-19T07:33:54.044Z,17.16
2019-05-19T07:34:54.024Z,17.16
2019-05-19T07:35:54.035Z,17.18
2019-05-19T07:36:54.014Z,17.17
2019-05-19T07:37:54.015Z,17.16
2019-05-19T07:38:53.994Z,17.14
2019-05-19T07:39:54.393Z,17.17
2019-05-19T07:40:54.387Z,17.17
2019-05-19T07:41:54.069Z,17.15
2019-05-19T07:42:54.132Z,17.17
2019-05-19T07:43:54.060Z,17.18
2019-05-19T07:44:54.072Z,17.21
2019-05-19T07:45:54.041Z,17.20
2019-05-19T07:46:54.020Z,17.21
2019-05-19T07:47:54.057Z,17.18
2019-05-19T07:48:54.058Z,17.20
2019-05-19T07:49:54.068Z,17.20
2019-05-19T07:50:54.053Z,17.20
2019-05-19T07:51:54.034Z,17.20
2019-05-19T07:52:54.033Z,17.18
2019-05-19T07:53:54.118Z,17.20
2019-05-19T07:54:54.108Z,17.20
2019-05-19T07:55:54.109Z,17.20
2019-05-19T07:56:54.089Z,17.20
2019-05-19T07:57:54.662Z,17.21
2019-05-19T07:58:54.074Z,17.25
2019-05-19T07:59:54.024Z,17.25
2019-05-19T08:00:54.074Z,17.28
2019-05-19T08:01:54.129Z,17.29
2019-05-19T08:02:54.076Z,17.29
2019-05-19T08:03:54.045Z,17.28
2019-05-19T08:04:54.031Z,17.29
2019-05-19T08:05:56.919Z,17.27
2019-05-19T08:06:54.093Z,17.28
2019-05-19T08:07:54.086Z,17.27
2019-05-19T08:08:54.072Z,17.27
2019-05-19T08:09:54.098Z,17.28
2019-05-19T08:10:54.071Z,17.27
2019-05-19T08:11:54.079Z,17.27
2019-05-19T08:12:54.066Z,17.27
2019-05-19T08:13:54.046Z,17.28
2019-05-19T08:14:54.051Z,17.27
2019-05-19T08:15:54.073Z,17.28
2019-05-19T08:16:54.079Z,17.27
2019-05-19T08:17:54.069Z,17.28
2019-05-19T08:18:54.059Z,17.28
2019-05-19T08:19:54.103Z,17.27
2019-05-19T08:20:54.058Z,17.28
2019-05-19T08:21:54.098Z,17.26
2019-05-19T08:22:54.074Z,17.29
2019-05-19T08:24:00.335Z,17.28
2019-05-19T08:24:54.150Z,17.27
2019-05-19T08:25:54.113Z,17.28
2019-05-19T08:26:54.078Z,17.29
2019-05-19T08:27:54.054Z,17.28
2019-05-19T08:28:54.082Z,17.27
2019-05-19T08:29:54.114Z,17.29
2019-05-19T08:30:54.074Z,17.29
2019-05-19T08:31:54.094Z,17.28
2019-05-19T08:32:54.124Z,17.29
2019-05-19T08:33:54.088Z,17.28
2019-05-19T08:34:54.064Z,17.26
2019-05-19T08:35:54.114Z,17.29
2019-05-19T08:36:54.083Z,17.29
2019-05-19T08:37:54.066Z,17.29
2019-05-19T08:38:54.114Z,17.29
2019-05-19T08:39:54.101Z,17.29
2019-05-19T08:40:54.119Z,17.29
2019-05-19T08:41:54.104Z,17.29
2019-05-19T08:42:54.086Z,17.29
2019-05-19T08:43:54.107Z,17.29
2019-05-19T08:44:54.130Z,17.28
2019-05-19T08:45:54.114Z,17.29
2019-05-19T08:46:54.091Z,17.29
2019-05-19T08:47:54.096Z,17.28
2019-05-19T08:48:54.089Z,17.29
2019-05-19T08:49:54.110Z,17.28
2019-05-19T08:50:54.125Z,17.29
2019-05-19T08:51:54.087Z,17.28
2019-05-19T08:52:54.119Z,17.29
2019-05-19T08:53:54.118Z,17.28
2019-05-19T08:54:54.133Z,17.28
2019-05-19T08:55:54.107Z,17.28
2019-05-19T08:56:54.146Z,17.28
2019-05-19T08:57:54.122Z,17.28
2019-05-19T08:58:54.137Z,17.29
2019-05-19T08:59:54.112Z,17.28
2019-05-19T09:00:54.093Z,17.29
2019-05-19T09:01:54.129Z,17.27
2019-05-19T09:02:54.115Z,17.29
2019-05-19T09:03:54.117Z,17.28
2019-05-19T09:04:54.129Z,17.29
2019-05-19T09:05:54.115Z,17.28
2019-05-19T09:06:54.117Z,17.27
2019-05-19T09:07:54.144Z,17.29
2019-05-19T09:08:54.136Z,17.28
2019-05-19T09:09:54.158Z,17.28
2019-05-19T09:10:54.146Z,17.28
2019-05-19T09:11:54.128Z,17.29
2019-05-19T09:12:54.176Z,17.28
2019-05-19T09:13:54.178Z,17.31
2019-05-19T09:14:54.156Z,17.34
2019-05-19T09:15:54.121Z,17.35
2019-05-19T09:16:54.167Z,17.35
2019-05-19T09:17:54.382Z,17.34
2019-05-19T09:18:54.150Z,17.36
2019-05-19T09:19:54.175Z,17.35
2019-05-19T09:20:54.124Z,17.34
2019-05-19T09:21:54.139Z,17.35
2019-05-19T09:22:54.141Z,17.35
2019-05-19T09:23:54.143Z,17.38
2019-05-19T09:24:54.171Z,17.39
2019-05-19T09:25:54.186Z,17.39
2019-05-19T09:26:54.138Z,17.40
2019-05-19T09:27:54.161Z,17.44
2019-05-19T09:28:54.133Z,17.46
2019-05-19T09:29:54.133Z,17.51
2019-05-19T09:30:54.150Z,17.54
2019-05-19T09:31:54.151Z,17.55
2019-05-19T09:32:54.187Z,17.58
2019-05-19T09:33:57.253Z,17.58
2019-05-19T09:35:00.162Z,17.60
2019-05-19T09:36:30.468Z,17.63
2019-05-19T09:37:30.522Z,17.68
2019-05-19T09:38:30.722Z,17.69
2019-05-19T09:39:30.538Z,17.71
2019-05-19T09:40:30.810Z,17.76
2019-05-19T09:41:30.556Z,17.80
2019-05-19T09:42:30.550Z,17.82
2019-05-19T09:43:30.549Z,17.83
2019-05-19T09:44:30.546Z,17.87
2019-05-19T09:45:30.528Z,17.84
2019-05-19T09:46:30.546Z,17.81
2019-05-19T09:47:30.497Z,17.78
2019-05-19T09:48:30.554Z,17.76
2019-05-19T09:49:30.507Z,17.71
2019-05-19T09:50:30.533Z,17.73
2019-05-19T09:51:30.630Z,17.74
2019-05-19T09:52:30.550Z,17.72
2019-05-19T09:53:30.561Z,17.71
2019-05-19T09:54:42.751Z,17.68
2019-05-19T09:55:30.530Z,17.71
2019-05-19T09:56:30.675Z,17.69
2019-05-19T09:57:30.559Z,17.69
2019-05-19T09:58:30.544Z,17.68
2019-05-19T09:59:30.593Z,17.68
2019-05-19T10:00:30.570Z,17.64
2019-05-19T10:01:30.607Z,17.67
2019-05-19T10:02:30.594Z,17.67
2019-05-19T10:03:30.569Z,17.65
2019-05-19T10:04:30.594Z,17.64
2019-05-19T10:05:30.640Z,17.61
2019-05-19T10:06:30.564Z,17.63
2019-05-19T10:07:30.556Z,17.63
2019-05-19T10:08:30.629Z,17.62
2019-05-19T10:09:30.603Z,17.63
2019-05-19T10:10:30.591Z,17.59
2019-05-19T10:11:30.560Z,17.61
2019-05-19T10:12:30.596Z,17.60
2019-05-19T10:13:30.629Z,17.59
2019-05-19T10:14:30.613Z,17.59
2019-05-19T10:15:30.576Z,17.59
2019-05-19T10:16:30.589Z,17.57
2019-05-19T10:17:30.589Z,17.60
2019-05-19T10:18:30.605Z,17.62
2019-05-19T10:19:30.570Z,17.66
2019-05-19T10:20:30.609Z,17.65
2019-05-19T10:21:30.643Z,17.63
2019-05-19T10:22:30.591Z,17.65
2019-05-19T10:23:30.625Z,17.64
2019-05-19T10:24:30.576Z,17.65
2019-05-19T10:25:30.632Z,17.64
2019-05-19T10:26:30.642Z,17.62
2019-05-19T10:27:30.599Z,17.61
2019-05-19T10:28:30.623Z,17.63
2019-05-19T10:29:30.615Z,17.62
2019-05-19T10:30:30.624Z,17.61
2019-05-19T10:31:30.586Z,17.61
2019-05-19T10:32:30.547Z,17.59
2019-05-19T10:33:30.589Z,17.61
2019-05-19T10:34:30.636Z,17.60
2019-05-19T10:35:30.634Z,17.59
2019-05-19T10:36:30.614Z,17.60
2019-05-19T10:37:30.644Z,17.58
2019-05-19T10:38:30.634Z,17.59
2019-05-19T10:39:30.584Z,17.58
2019-05-19T10:40:30.669Z,17.58
2019-05-19T10:41:30.598Z,17.58
2019-05-19T10:42:30.658Z,17.58
2019-05-19T10:43:30.620Z,17.55
2019-05-19T10:44:30.591Z,17.58
2019-05-19T10:45:30.607Z,17.57
2019-05-19T10:46:30.607Z,17.57
2019-05-19T10:47:30.635Z,17.57
2019-05-19T10:48:30.609Z,17.53
2019-05-19T10:49:30.625Z,17.58
2019-05-19T10:50:30.630Z,17.56
2019-05-19T10:51:30.606Z,17.58
2019-05-19T10:52:30.611Z,17.57
2019-05-19T10:53:30.642Z,17.55
2019-05-19T10:54:30.719Z,17.56
2019-05-19T10:55:36.536Z,17.57
2019-05-19T10:56:30.619Z,17.57
2019-05-19T10:57:30.656Z,17.57
2019-05-19T10:58:30.645Z,17.56
2019-05-19T10:59:30.645Z,17.58
2019-05-19T11:00:30.636Z,17.57
2019-05-19T11:01:30.602Z,17.58
2019-05-19T11:02:30.599Z,17.57
2019-05-19T11:03:30.611Z,17.55
2019-05-19T11:04:30.625Z,17.57
2019-05-19T11:05:30.609Z,17.57
2019-05-19T11:06:30.608Z,17.57
2019-05-19T11:07:30.606Z,17.56
2019-05-19T11:08:30.645Z,17.54
2019-05-19T11:09:30.668Z,17.54
2019-05-19T11:10:30.646Z,17.56
2019-05-19T11:11:30.697Z,17.56
2019-05-19T11:12:30.661Z,17.56
2019-05-19T11:13:30.648Z,17.56
2019-05-19T11:14:30.742Z,17.53
2019-05-19T11:15:30.642Z,17.55
2019-05-19T11:16:30.610Z,17.54
2019-05-19T11:17:30.602Z,17.54
2019-05-19T11:18:30.635Z,17.54
2019-05-19T11:19:30.684Z,17.52
2019-05-19T11:20:30.650Z,17.53
2019-05-19T11:21:30.655Z,17.53
2019-05-19T11:22:30.613Z,17.53
2019-05-19T11:23:30.671Z,17.53
2019-05-19T11:24:30.654Z,17.53
2019-05-19T11:25:33.858Z,17.49
2019-05-19T11:26:30.665Z,17.51
2019-05-19T11:27:30.650Z,17.52
2019-05-19T11:28:30.672Z,17.51
2019-05-19T11:29:30.641Z,17.48
2019-05-19T11:30:30.658Z,17.50
2019-05-19T11:31:30.670Z,17.51
2019-05-19T11:32:30.645Z,17.51
2019-05-19T11:33:30.658Z,17.50
2019-05-19T11:34:30.683Z,17.48
2019-05-19T11:35:30.706Z,17.48
2019-05-19T11:36:30.654Z,17.50
2019-05-19T11:37:30.641Z,17.50
2019-05-19T11:38:30.670Z,17.50
2019-05-19T11:39:30.664Z,17.49
2019-05-19T11:40:30.672Z,17.47
2019-05-19T11:41:30.670Z,17.49
2019-05-19T11:42:30.654Z,17.49
2019-05-19T11:43:30.725Z,17.49
2019-05-19T11:44:30.711Z,17.49
2019-05-19T11:45:30.696Z,17.46
2019-05-19T11:46:30.653Z,17.50
2019-05-19T11:47:30.725Z,17.49
2019-05-19T11:48:30.658Z,17.48
2019-05-19T11:49:30.672Z,17.47
2019-05-19T11:50:30.690Z,17.48
2019-05-19T11:51:30.686Z,17.45
2019-05-19T11:52:30.663Z,17.47
2019-05-19T11:53:30.679Z,17.47
2019-05-19T11:54:30.690Z,17.48
2019-05-19T11:55:30.694Z,17.46
2019-05-19T11:56:30.672Z,17.44
2019-05-19T11:57:30.736Z,17.46
2019-05-19T11:58:30.656Z,17.45
2019-05-19T11:59:30.645Z,17.45
2019-05-19T12:00:30.658Z,17.47
2019-05-19T12:01:30.706Z,17.43
2019-05-19T12:02:30.735Z,17.44
2019-05-19T12:03:30.688Z,17.46
2019-05-19T12:04:30.722Z,17.45
2019-05-19T12:05:30.753Z,17.44
2019-05-19T12:06:39.229Z,17.45
2019-05-19T12:07:30.723Z,17.45
2019-05-19T12:08:30.669Z,17.44
2019-05-19T12:09:30.700Z,17.44
2019-05-19T12:10:30.697Z,17.44
2019-05-19T12:11:30.698Z,17.42
2019-05-19T12:12:30.770Z,17.44
2019-05-19T12:13:30.694Z,17.44
2019-05-19T12:14:30.715Z,17.44
2019-05-19T12:15:30.701Z,17.44
2019-05-19T12:16:30.691Z,17.41
2019-05-19T12:17:30.848Z,17.44
2019-05-19T12:18:30.770Z,17.44
2019-05-19T12:19:30.675Z,17.43
2019-05-19T12:20:30.696Z,17.42
2019-05-19T12:21:30.690Z,17.43
2019-05-19T12:22:30.739Z,17.43
2019-05-19T12:23:30.741Z,17.44
2019-05-19T12:24:30.712Z,17.43
2019-05-19T12:25:30.717Z,17.41
2019-05-19T12:26:30.779Z,17.43
2019-05-19T12:27:30.740Z,17.42
2019-05-19T12:28:30.728Z,17.44
2019-05-19T12:29:30.732Z,17.43
2019-05-19T12:30:30.767Z,17.43
2019-05-19T12:31:30.753Z,17.40
2019-05-19T12:32:30.775Z,17.42
2019-05-19T12:33:30.776Z,17.43
2019-05-19T12:34:30.687Z,17.42
2019-05-19T12:35:30.728Z,17.42
2019-05-19T12:36:30.711Z,17.39
2019-05-19T12:37:30.729Z,17.41
2019-05-19T12:38:30.708Z,17.41
2019-05-19T12:39:30.741Z,17.41
2019-05-19T12:40:30.701Z,17.41
2019-05-19T12:41:30.818Z,17.39
2019-05-19T12:42:30.794Z,17.41
2019-05-19T12:43:30.733Z,17.42
2019-05-19T12:44:30.734Z,17.40
2019-05-19T12:45:30.909Z,17.42
2019-05-19T12:46:30.808Z,17.41
2019-05-19T12:47:30.733Z,17.39
2019-05-19T12:48:30.733Z,17.41
2019-05-19T12:49:30.749Z,17.42
2019-05-19T12:50:30.757Z,17.41
2019-05-19T12:51:30.738Z,17.41
2019-05-19T12:52:30.739Z,17.37
2019-05-19T12:53:30.720Z,17.41